Time;durP1;ratioP1;P1;durP2;ratioP2;P2;SDS_P1;SDS_P2;PMS_P1;PMS_P2;Temp;Humidity;BMP_temperature;BMP_pressure;BME280_temperature;BME280_humidity;BME280_pressure;Samples;Min_cycle;Max_cycle;Signal;HPM_P1;HPM_P2
2023/08/22 00:01:24;;;;;;;3.53;2.05;;;;;;;;;;5150140;27;20414;-73
2023/08/22 00:03:56;;;;;;;3.20;2.10;;;;;;;;;;5149989;27;20538;-73
2023/08/22 00:06:24;;;;;;;4.43;2.00;;;;;;;;;;5150102;27;20074;-72
2023/08/22 00:08:50;;;;;;;4.38;2.00;;;;;;;;;;5150019;27;20050;-73
2023/08/22 00:11:17;;;;;;;4.40;2.10;;;;;;;;;;5150193;27;20414;-72
2023/08/22 00:13:44;;;;;;;3.42;1.98;;;;;;;;;;5150275;27;20138;-72
2023/08/22 00:16:10;;;;;;;5.10;1.90;;;;;;;;;;5150309;27;20055;-73
2023/08/22 00:18:37;;;;;;;5.13;2.22;;;;;;;;;;5152434;27;20099;-73
2023/08/22 00:21:04;;;;;;;4.43;1.98;;;;;;;;;;5153900;27;20043;-72
2023/08/22 00:23:31;;;;;;;4.82;2.28;;;;;;;;;;5153562;27;20061;-73
2023/08/22 00:25:57;;;;;;;4.50;2.03;;;;;;;;;;5154378;27;20047;-72
2023/08/22 00:28:24;;;;;;;8.07;2.28;;;;;;;;;;5154410;27;20054;-73
2023/08/22 00:30:53;;;;;;;3.05;1.83;;;;;;;;;;5154099;27;20062;-73
2023/08/22 00:33:20;;;;;;;3.13;1.98;;;;;;;;;;5153995;27;20084;-73
2023/08/22 00:35:48;;;;;;;5.18;2.15;;;;;;;;;;5154296;27;20054;-73
2023/08/22 00:38:14;;;;;;;4.13;2.10;;;;;;;;;;5153566;27;20042;-73
2023/08/22 00:40:41;;;;;;;4.60;2.05;;;;;;;;;;5153753;27;20047;-72
2023/08/22 00:43:08;;;;;;;5.15;1.75;;;;;;;;;;5154017;27;20069;-72
2023/08/22 00:45:36;;;;;;;3.58;2.13;;;;;;;;;;5154105;27;20091;-73
2023/08/22 00:48:03;;;;;;;5.28;1.77;;;;;;;;;;5152571;27;20051;-72
2023/08/22 00:50:30;;;;;;;3.17;1.75;;;;;;;;;;5153742;27;20050;-73
2023/08/22 00:52:56;;;;;;;3.63;1.90;;;;;;;;;;5153265;27;20049;-72
2023/08/22 00:55:23;;;;;;;3.65;1.83;;;;;;;;;;5153507;27;20444;-73
2023/08/22 00:57:50;;;;;;;5.85;2.08;;;;;;;;;;5153397;27;20042;-73
2023/08/22 01:00:17;;;;;;;3.75;1.90;;;;;;;;;;5153708;27;20047;-73
2023/08/22 01:02:44;;;;;;;4.63;1.90;;;;;;;;;;5153390;27;20216;-72
2023/08/22 01:05:11;;;;;;;4.45;1.95;;;;;;;;;;5153679;27;20041;-73
2023/08/22 01:07:55;;;;;;;4.28;2.08;;;;;;;;;;5153158;27;20039;-73
2023/08/22 01:10:28;;;;;;;3.53;1.88;;;;;;;;;;5153573;27;20106;-72
2023/08/22 01:13:07;;;;;;;2.92;2.00;;;;;;;;;;5153181;27;20053;-73
2023/08/22 01:15:35;;;;;;;3.00;1.80;;;;;;;;;;5152975;27;20042;-73
2023/08/22 01:18:06;;;;;;;3.47;1.80;;;;;;;;;;5152756;27;20043;-73
2023/08/22 01:20:34;;;;;;;3.83;1.80;;;;;;;;;;5153549;27;20054;-73
2023/08/22 01:23:00;;;;;;;4.95;1.75;;;;;;;;;;5152841;27;20494;-73
2023/08/22 01:25:28;;;;;;;3.13;1.83;;;;;;;;;;5153150;27;20047;-72
2023/08/22 01:28:11;;;;;;;4.05;2.10;;;;;;;;;;5153019;27;20058;-73
2023/08/22 01:30:46;;;;;;;6.63;2.05;;;;;;;;;;5152104;27;20125;-73
2023/08/22 01:33:42;;;;;;;6.55;2.40;;;;;;;;;;5152690;27;20085;-72
2023/08/22 01:36:10;;;;;;;4.85;1.90;;;;;;;;;;5150541;27;20095;-72
2023/08/22 01:38:40;;;;;;;4.15;2.00;;;;;;;;;;5152424;27;20142;-73
2023/08/22 01:41:07;;;;;;;6.32;2.10;;;;;;;;;;5153082;27;20043;-72
2023/08/22 01:43:34;;;;;;;4.72;1.90;;;;;;;;;;5152630;27;20046;-73
2023/08/22 01:46:01;;;;;;;2.85;1.70;;;;;;;;;;5152711;27;20053;-72
2023/08/22 01:48:27;;;;;;;4.05;2.10;;;;;;;;;;5152393;27;20122;-73
2023/08/22 01:50:54;;;;;;;2.47;1.70;;;;;;;;;;5152626;27;20038;-72
2023/08/22 01:53:21;;;;;;;4.68;2.05;;;;;;;;;;5152056;27;20046;-73
2023/08/22 01:55:48;;;;;;;3.28;1.70;;;;;;;;;;5152547;27;20046;-73
2023/08/22 01:58:15;;;;;;;4.60;1.85;;;;;;;;;;5152429;27;20113;-73
2023/08/22 02:00:41;;;;;;;2.95;1.67;;;;;;;;;;5152435;27;20063;-73
2023/08/22 02:03:08;;;;;;;3.08;1.73;;;;;;;;;;5152468;27;20086;-73
2023/08/22 02:05:35;;;;;;;5.65;1.67;;;;;;;;;;5152383;27;20046;-72
2023/08/22 02:08:03;;;;;;;5.72;1.75;;;;;;;;;;5151450;27;20050;-73
2023/08/22 02:10:31;;;;;;;4.35;1.80;;;;;;;;;;5152103;27;20551;-73
2023/08/22 02:12:58;;;;;;;3.38;1.85;;;;;;;;;;5152122;27;20039;-72
2023/08/22 02:15:24;;;;;;;5.80;1.95;;;;;;;;;;5152151;27;20053;-72
2023/08/22 02:17:51;;;;;;;4.88;1.70;;;;;;;;;;5152124;27;20070;-73
2023/08/22 02:20:19;;;;;;;5.88;1.75;;;;;;;;;;5152382;27;20050;-72
2023/08/22 02:22:46;;;;;;;4.10;1.80;;;;;;;;;;5151371;27;20049;-72
2023/08/22 02:25:13;;;;;;;4.65;1.50;;;;;;;;;;5151993;27;20042;-72
2023/08/22 02:27:40;;;;;;;3.50;1.70;;;;;;;;;;5151885;27;20051;-72
2023/08/22 02:30:08;;;;;;;3.72;1.60;;;;;;;;;;5151848;27;20514;-72
2023/08/22 02:32:35;;;;;;;6.30;1.80;;;;;;;;;;5151532;27;20047;-73
2023/08/22 02:35:03;;;;;;;7.90;2.10;;;;;;;;;;5151453;27;20077;-72
2023/08/22 02:37:29;;;;;;;4.15;1.92;;;;;;;;;;5151653;27;20106;-73
2023/08/22 02:39:56;;;;;;;7.07;1.98;;;;;;;;;;5151689;27;20046;-72
2023/08/22 02:42:23;;;;;;;5.10;1.83;;;;;;;;;;5150537;27;20042;-72
2023/08/22 02:44:49;;;;;;;3.30;1.40;;;;;;;;;;5151473;27;20047;-72
2023/08/22 02:47:16;;;;;;;3.72;1.40;;;;;;;;;;5151367;27;20502;-73
2023/08/22 02:49:42;;;;;;;5.20;1.67;;;;;;;;;;5151043;27;20074;-73
2023/08/22 02:52:09;;;;;;;4.53;1.40;;;;;;;;;;5151997;27;20046;-72
2023/08/22 02:54:36;;;;;;;3.50;1.60;;;;;;;;;;5150649;27;20042;-73
2023/08/22 02:57:02;;;;;;;5.63;1.73;;;;;;;;;;5151384;27;20562;-72
2023/08/22 02:59:29;;;;;;;8.73;1.40;;;;;;;;;;5151063;27;20058;-72
2023/08/22 03:01:56;;;;;;;3.38;1.25;;;;;;;;;;5150991;27;20130;-73
2023/08/22 03:04:22;;;;;;;3.35;1.38;;;;;;;;;;5151022;27;20099;-73
2023/08/22 03:06:49;;;;;;;5.10;1.70;;;;;;;;;;5151100;27;20501;-72
2023/08/22 03:09:16;;;;;;;5.22;1.65;;;;;;;;;;5150631;27;20045;-73
2023/08/22 03:11:43;;;;;;;4.07;1.60;;;;;;;;;;5151327;27;20047;-72
2023/08/22 03:14:10;;;;;;;6.82;1.70;;;;;;;;;;5150888;27;20043;-73
2023/08/22 03:16:37;;;;;;;4.07;1.42;;;;;;;;;;5150732;27;20046;-72
2023/08/22 03:19:04;;;;;;;2.13;1.30;;;;;;;;;;5150694;27;20039;-73
2023/08/22 03:21:30;;;;;;;3.17;1.50;;;;;;;;;;5151003;27;20067;-73
2023/08/22 03:23:57;;;;;;;3.90;1.40;;;;;;;;;;5150154;27;20039;-72
2023/08/22 03:26:25;;;;;;;4.35;1.52;;;;;;;;;;5150600;27;20544;-73
2023/08/22 03:28:52;;;;;;;3.22;1.45;;;;;;;;;;5150869;27;20047;-73
2023/08/22 03:31:22;;;;;;;4.80;1.40;;;;;;;;;;5150986;27;20130;-73
2023/08/22 03:33:48;;;;;;;3.40;1.40;;;;;;;;;;5150314;27;20125;-72
2023/08/22 03:36:15;;;;;;;4.57;1.40;;;;;;;;;;5150741;27;20046;-73
2023/08/22 03:38:42;;;;;;;4.55;1.40;;;;;;;;;;5149871;27;20098;-72
2023/08/22 03:41:08;;;;;;;3.50;1.45;;;;;;;;;;5150678;27;20043;-73
2023/08/22 03:43:35;;;;;;;4.70;1.60;;;;;;;;;;5150339;27;20050;-73
2023/08/22 03:46:04;;;;;;;4.95;1.67;;;;;;;;;;5150610;27;20054;-73
2023/08/22 03:48:31;;;;;;;2.47;1.40;;;;;;;;;;5150519;27;20627;-72
2023/08/22 03:50:59;;;;;;;4.53;1.52;;;;;;;;;;5150400;27;20051;-73
2023/08/22 03:53:26;;;;;;;4.22;1.40;;;;;;;;;;5149868;27;20127;-73
2023/08/22 03:55:53;;;;;;;3.17;1.38;;;;;;;;;;5150296;27;20043;-72
2023/08/22 03:58:19;;;;;;;3.58;1.70;;;;;;;;;;5150450;27;20115;-73
2023/08/22 04:00:46;;;;;;;2.70;1.35;;;;;;;;;;5150504;27;20047;-72
2023/08/22 04:03:13;;;;;;;4.60;1.65;;;;;;;;;;5150445;27;20095;-72
2023/08/22 04:05:42;;;;;;;3.28;1.50;;;;;;;;;;5150242;27;20117;-72
2023/08/22 04:08:09;;;;;;;3.63;1.70;;;;;;;;;;5150167;27;20046;-72
2023/08/22 04:10:36;;;;;;;3.03;1.30;;;;;;;;;;5150350;27;20051;-72
2023/08/22 04:13:03;;;;;;;4.28;1.40;;;;;;;;;;5150020;27;20411;-73
2023/08/22 04:15:29;;;;;;;4.05;1.40;;;;;;;;;;5150065;27;20066;-73
2023/08/22 04:17:56;;;;;;;3.33;1.48;;;;;;;;;;5150265;27;20111;-72
2023/08/22 04:20:23;;;;;;;3.35;1.33;;;;;;;;;;5150037;27;20095;-72
2023/08/22 04:22:49;;;;;;;5.13;1.40;;;;;;;;;;5150155;27;20438;-73
2023/08/22 04:25:16;;;;;;;3.28;1.30;;;;;;;;;;5150007;27;20543;-73
2023/08/22 04:27:43;;;;;;;2.97;1.27;;;;;;;;;;5150379;27;20039;-72
2023/08/22 04:30:12;;;;;;;2.10;1.15;;;;;;;;;;5149862;27;20524;-72
2023/08/22 04:32:39;;;;;;;5.38;1.23;;;;;;;;;;5149815;27;20521;-73
2023/08/22 04:35:06;;;;;;;3.47;1.10;;;;;;;;;;5149784;27;20038;-72
2023/08/22 04:37:33;;;;;;;3.20;1.50;;;;;;;;;;5149686;27;20070;-72
2023/08/22 04:39:59;;;;;;;4.43;1.35;;;;;;;;;;5149850;27;20153;-72
2023/08/22 04:42:26;;;;;;;7.63;1.30;;;;;;;;;;5150197;27;20057;-73
2023/08/22 04:44:52;;;;;;;3.10;1.20;;;;;;;;;;5150080;27;20056;-73
2023/08/22 04:47:19;;;;;;;2.55;1.13;;;;;;;;;;5149802;27;20042;-72
2023/08/22 04:49:46;;;;;;;5.03;1.35;;;;;;;;;;5150055;27;20043;-73
2023/08/22 04:52:13;;;;;;;2.92;1.20;;;;;;;;;;5149953;27;20658;-73
2023/08/22 04:54:40;;;;;;;2.58;1.20;;;;;;;;;;5149243;27;20055;-73
2023/08/22 04:57:07;;;;;;;3.28;1.30;;;;;;;;;;5150065;27;20043;-73
2023/08/22 04:59:34;;;;;;;3.03;1.23;;;;;;;;;;5149749;27;20057;-73
2023/08/22 05:02:02;;;;;;;2.25;1.30;;;;;;;;;;5149858;27;20545;-73
2023/08/22 05:04:29;;;;;;;2.85;1.23;;;;;;;;;;5149829;27;20084;-72
2023/08/22 05:06:55;;;;;;;3.35;1.30;;;;;;;;;;5152056;27;20066;-72
2023/08/22 05:09:22;;;;;;;3.72;1.48;;;;;;;;;;5152935;27;20053;-72
2023/08/22 05:11:49;;;;;;;4.93;1.40;;;;;;;;;;5153759;27;20054;-72
2023/08/22 05:14:16;;;;;;;2.30;1.10;;;;;;;;;;5153408;27;20485;-73
2023/08/22 05:16:43;;;;;;;3.63;1.40;;;;;;;;;;5152231;27;20054;-73
2023/08/22 05:19:10;;;;;;;3.03;1.23;;;;;;;;;;5153791;27;20130;-72
2023/08/22 05:21:37;;;;;;;4.03;1.40;;;;;;;;;;5153272;27;20047;-72
2023/08/22 05:24:03;;;;;;;2.85;1.35;;;;;;;;;;5152873;27;20042;-73
2023/08/22 05:26:30;;;;;;;2.50;1.30;;;;;;;;;;5153057;27;20066;-73
2023/08/22 05:28:57;;;;;;;4.35;1.20;;;;;;;;;;5153393;27;20043;-72
2023/08/22 05:31:24;;;;;;;4.53;1.30;;;;;;;;;;5151385;27;20043;-72
2023/08/22 05:33:51;;;;;;;4.55;1.58;;;;;;;;;;5153014;27;20432;-73
2023/08/22 05:36:18;;;;;;;6.07;1.35;;;;;;;;;;5152551;27;20046;-73
2023/08/22 05:38:44;;;;;;;2.58;1.17;;;;;;;;;;5152791;27;20051;-72
2023/08/22 05:41:11;;;;;;;3.40;1.00;;;;;;;;;;5152477;27;20506;-72
2023/08/22 05:43:38;;;;;;;2.33;1.02;;;;;;;;;;5152812;27;20069;-73
2023/08/22 05:46:05;;;;;;;2.30;1.10;;;;;;;;;;5152525;27;20137;-72
2023/08/22 05:48:31;;;;;;;2.97;1.35;;;;;;;;;;5152988;27;20042;-73
2023/08/22 05:50:58;;;;;;;4.45;1.27;;;;;;;;;;5152777;27;20254;-72
2023/08/22 05:53:25;;;;;;;2.22;1.00;;;;;;;;;;5152652;27;20043;-73
2023/08/22 05:55:52;;;;;;;4.47;1.40;;;;;;;;;;5152528;27;20047;-72
2023/08/22 05:58:18;;;;;;;4.22;1.30;;;;;;;;;;5152490;27;20051;-73
2023/08/22 06:00:45;;;;;;;3.72;1.10;;;;;;;;;;5152215;27;20046;-73
2023/08/22 06:03:12;;;;;;;2.60;1.23;;;;;;;;;;5152328;27;20045;-73
2023/08/22 06:05:40;;;;;;;2.92;1.13;;;;;;;;;;5152395;27;20125;-72
2023/08/22 06:08:06;;;;;;;3.35;1.42;;;;;;;;;;5152179;27;20043;-72
2023/08/22 06:10:33;;;;;;;2.90;1.00;;;;;;;;;;5152411;27;20039;-72
2023/08/22 06:13:00;;;;;;;4.95;1.20;;;;;;;;;;5152287;27;20142;-72
2023/08/22 06:15:26;;;;;;;4.18;1.13;;;;;;;;;;5151695;27;20046;-72
2023/08/22 06:17:53;;;;;;;4.15;1.20;;;;;;;;;;5152011;27;20049;-73
2023/08/22 06:20:20;;;;;;;4.65;1.30;;;;;;;;;;5151700;27;20072;-72
2023/08/22 06:22:46;;;;;;;6.07;1.38;;;;;;;;;;5151742;27;20083;-73
2023/08/22 06:25:13;;;;;;;4.13;1.25;;;;;;;;;;5152228;27;20046;-72
2023/08/22 06:27:40;;;;;;;4.47;1.23;;;;;;;;;;5151610;27;20046;-73
2023/08/22 06:30:07;;;;;;;5.72;1.40;;;;;;;;;;5152040;27;20047;-72
2023/08/22 06:32:34;;;;;;;1.70;1.10;;;;;;;;;;5151602;27;20150;-72
2023/08/22 06:35:03;;;;;;;3.72;1.23;;;;;;;;;;5151781;27;20091;-73
2023/08/22 06:37:30;;;;;;;2.33;1.20;;;;;;;;;;5151090;27;20046;-73
2023/08/22 06:39:57;;;;;;;3.78;1.10;;;;;;;;;;5151779;27;20447;-73
2023/08/22 06:42:24;;;;;;;2.88;1.10;;;;;;;;;;5151464;27;20050;-72
2023/08/22 06:44:50;;;;;;;2.20;1.15;;;;;;;;;;5151571;27;20050;-73
2023/08/22 06:47:17;;;;;;;5.18;1.20;;;;;;;;;;5150166;27;20062;-72
2023/08/22 06:49:44;;;;;;;3.80;1.20;;;;;;;;;;5151652;27;20054;-73
2023/08/22 06:52:11;;;;;;;8.25;1.45;;;;;;;;;;5151408;27;20042;-73
2023/08/22 06:54:37;;;;;;;4.28;1.25;;;;;;;;;;5151055;27;20043;-72
2023/08/22 06:57:05;;;;;;;3.30;1.30;;;;;;;;;;5150800;27;20054;-72
2023/08/22 06:59:32;;;;;;;1.98;1.10;;;;;;;;;;5151312;27;20050;-72
2023/08/22 07:01:59;;;;;;;2.83;1.17;;;;;;;;;;5151034;27;20050;-72
2023/08/22 07:04:26;;;;;;;2.67;1.02;;;;;;;;;;5151388;27;20126;-72
2023/08/22 07:06:53;;;;;;;2.95;1.10;;;;;;;;;;5151013;27;20043;-73
2023/08/22 07:09:19;;;;;;;1.88;1.10;;;;;;;;;;5150854;27;20091;-72
2023/08/22 07:11:46;;;;;;;4.35;1.00;;;;;;;;;;5150834;27;20047;-72
2023/08/22 07:14:13;;;;;;;2.35;1.20;;;;;;;;;;5150885;27;20053;-72
2023/08/22 07:16:40;;;;;;;4.50;1.40;;;;;;;;;;5150948;27;20095;-74
2023/08/22 07:19:07;;;;;;;2.10;1.10;;;;;;;;;;5151051;27;20078;-73
2023/08/22 07:21:33;;;;;;;2.92;1.10;;;;;;;;;;5150617;27;20565;-73
2023/08/22 07:24:00;;;;;;;3.03;1.30;;;;;;;;;;5151093;27;20334;-73
2023/08/22 07:26:26;;;;;;;2.17;1.00;;;;;;;;;;5149617;27;20054;-72
2023/08/22 07:28:53;;;;;;;2.17;1.00;;;;;;;;;;5149917;27;20042;-73
2023/08/22 07:31:20;;;;;;;1.98;1.15;;;;;;;;;;5150380;27;20730;-73
2023/08/22 07:33:47;;;;;;;2.67;1.20;;;;;;;;;;5150472;27;20097;-72
2023/08/22 07:36:20;;;;;;;2.22;0.90;;;;;;;;;;5150660;27;20042;-72
2023/08/22 07:38:47;;;;;;;2.65;1.02;;;;;;;;;;5150554;27;20042;-73
2023/08/22 07:41:14;;;;;;;2.70;1.05;;;;;;;;;;5150499;27;20071;-73
2023/08/22 07:43:40;;;;;;;2.42;1.00;;;;;;;;;;5150802;27;20049;-72
2023/08/22 07:46:07;;;;;;;5.90;1.48;;;;;;;;;;5150728;27;20071;-72
2023/08/22 07:48:34;;;;;;;5.45;1.20;;;;;;;;;;5150383;27;20058;-73
2023/08/22 07:51:00;;;;;;;3.13;1.10;;;;;;;;;;5150188;27;20049;-72
2023/08/22 07:53:27;;;;;;;2.45;1.20;;;;;;;;;;5149890;27;20042;-72
2023/08/22 07:55:54;;;;;;;3.42;0.98;;;;;;;;;;5150860;27;20049;-72
2023/08/22 07:58:20;;;;;;;4.30;1.10;;;;;;;;;;5150471;27;20078;-73
2023/08/22 08:00:47;;;;;;;2.47;1.20;;;;;;;;;;5150477;27;20047;-73
2023/08/22 08:03:14;;;;;;;4.22;1.02;;;;;;;;;;5150187;27;20525;-73
2023/08/22 08:05:41;;;;;;;2.20;1.10;;;;;;;;;;5150397;27;20125;-72
2023/08/22 08:08:08;;;;;;;2.47;1.10;;;;;;;;;;5149534;27;20126;-73
2023/08/22 08:10:36;;;;;;;3.75;1.10;;;;;;;;;;5150612;27;20050;-73
2023/08/22 08:13:03;;;;;;;4.40;1.20;;;;;;;;;;5150208;27;20043;-73
2023/08/22 08:15:30;;;;;;;3.38;1.20;;;;;;;;;;5150602;27;20043;-73
2023/08/22 08:17:58;;;;;;;2.38;1.10;;;;;;;;;;5149971;27;20046;-73
2023/08/22 08:20:25;;;;;;;5.72;1.33;;;;;;;;;;5150407;27;20054;-72
2023/08/22 08:22:52;;;;;;;2.72;1.10;;;;;;;;;;5149491;27;20498;-72
2023/08/22 08:25:18;;;;;;;3.97;1.20;;;;;;;;;;5150269;27;20419;-73
2023/08/22 08:27:45;;;;;;;2.92;1.35;;;;;;;;;;5149870;27;20518;-72
2023/08/22 08:30:16;;;;;;;4.13;1.20;;;;;;;;;;5150415;27;20043;-72
2023/08/22 08:32:43;;;;;;;1.88;1.00;;;;;;;;;;5149959;27;20057;-73
2023/08/22 08:35:10;;;;;;;3.97;1.13;;;;;;;;;;5150105;27;20043;-72
2023/08/22 08:37:36;;;;;;;4.43;1.40;;;;;;;;;;5149235;27;20476;-72
2023/08/22 08:40:07;;;;;;;6.15;1.45;;;;;;;;;;5152661;27;20506;-73
2023/08/22 08:42:36;;;;;;;2.15;1.08;;;;;;;;;;5153700;27;20046;-72
2023/08/22 08:45:05;;;;;;;2.58;1.30;;;;;;;;;;5153975;27;20099;-73
2023/08/22 08:47:33;;;;;;;2.67;1.30;;;;;;;;;;5153786;27;20066;-73
2023/08/22 08:50:05;;;;;;;3.15;1.40;;;;;;;;;;5153922;27;20049;-72
2023/08/22 08:52:32;;;;;;;3.28;1.08;;;;;;;;;;5152228;27;20599;-73
2023/08/22 08:54:59;;;;;;;3.08;1.30;;;;;;;;;;5153905;27;20117;-73
2023/08/22 08:57:29;;;;;;;2.55;1.27;;;;;;;;;;5153587;27;20065;-72
2023/08/22 08:59:56;;;;;;;3.13;1.20;;;;;;;;;;5153845;27;20039;-72
2023/08/22 09:02:22;;;;;;;3.22;1.23;;;;;;;;;;5153235;27;20540;-73
2023/08/22 09:04:49;;;;;;;4.90;1.25;;;;;;;;;;5153578;27;20046;-72
2023/08/22 09:07:18;;;;;;;2.33;1.15;;;;;;;;;;5153014;27;20043;-72
2023/08/22 09:09:44;;;;;;;2.70;1.10;;;;;;;;;;5153488;27;20073;-72
2023/08/22 09:12:13;;;;;;;4.57;1.50;;;;;;;;;;5152160;27;20539;-73
2023/08/22 09:14:47;;;;;;;3.83;1.40;;;;;;;;;;5153435;27;20121;-72
2023/08/22 09:17:17;;;;;;;6.75;1.85;;;;;;;;;;5153019;27;20584;-73
2023/08/22 09:19:44;;;;;;;1.98;1.02;;;;;;;;;;5153458;27;20046;-72
2023/08/22 09:22:13;;;;;;;4.20;1.48;;;;;;;;;;5153101;27;20047;-72
2023/08/22 09:24:50;;;;;;;3.80;1.17;;;;;;;;;;5153506;27;20050;-72
2023/08/22 09:27:21;;;;;;;4.82;1.50;;;;;;;;;;5152935;27;20053;-72
2023/08/22 09:29:47;;;;;;;3.42;1.48;;;;;;;;;;5153185;27;20042;-72
2023/08/22 09:32:14;;;;;;;2.88;1.27;;;;;;;;;;5153055;27;20057;-72
2023/08/22 09:34:53;;;;;;;3.47;1.38;;;;;;;;;;5153062;27;20046;-72
2023/08/22 09:37:30;;;;;;;3.15;1.50;;;;;;;;;;5152561;27;20069;-72
2023/08/22 09:39:57;;;;;;;2.72;1.10;;;;;;;;;;5152739;27;20536;-72
2023/08/22 09:42:28;;;;;;;3.15;1.63;;;;;;;;;;5152681;27;20043;-73
2023/08/22 09:44:58;;;;;;;3.17;1.50;;;;;;;;;;5153279;27;20054;-72
2023/08/22 09:47:29;;;;;;;2.88;1.50;;;;;;;;;;5152900;27;20054;-72
2023/08/22 09:50:03;;;;;;;5.18;1.50;;;;;;;;;;5152506;27;20218;-73
2023/08/22 09:52:31;;;;;;;5.55;1.70;;;;;;;;;;5151516;27;20054;-73
2023/08/22 09:54:58;;;;;;;5.40;1.85;;;;;;;;;;5152327;27;20521;-74
2023/08/22 09:57:26;;;;;;;3.00;1.42;;;;;;;;;;5152290;27;20050;-72
2023/08/22 09:59:52;;;;;;;3.88;1.40;;;;;;;;;;5152448;27;20047;-72
2023/08/22 10:02:20;;;;;;;3.10;1.70;;;;;;;;;;5152388;27;20051;-73
2023/08/22 10:04:47;;;;;;;3.40;1.50;;;;;;;;;;5152215;27;20118;-74
2023/08/22 10:07:13;;;;;;;3.03;1.50;;;;;;;;;;5151898;27;20486;-73
2023/08/22 10:09:43;;;;;;;2.70;1.30;;;;;;;;;;5151680;27;20522;-73
2023/08/22 10:12:14;;;;;;;4.47;1.60;;;;;;;;;;5152168;27;20441;-73
2023/08/22 10:14:48;;;;;;;3.10;1.38;;;;;;;;;;5151989;27;20308;-73
2023/08/22 10:17:15;;;;;;;4.07;1.58;;;;;;;;;;5152285;27;20319;-73
2023/08/22 10:19:43;;;;;;;4.45;1.60;;;;;;;;;;5151748;27;20551;-74
2023/08/22 10:22:14;;;;;;;3.78;1.70;;;;;;;;;;5152362;27;20042;-73
2023/08/22 10:24:42;;;;;;;4.63;1.50;;;;;;;;;;5151798;27;20107;-73
2023/08/22 10:27:16;;;;;;;3.45;1.52;;;;;;;;;;5152117;27;20050;-73
2023/08/22 10:29:45;;;;;;;4.13;1.40;;;;;;;;;;5151621;27;20047;-72
2023/08/22 10:32:15;;;;;;;4.40;1.42;;;;;;;;;;5152017;27;20058;-72
2023/08/22 10:34:42;;;;;;;3.47;1.60;;;;;;;;;;5151664;27;20489;-72
2023/08/22 10:37:16;;;;;;;4.93;1.50;;;;;;;;;;5152212;27;20047;-72
2023/08/22 10:39:47;;;;;;;2.72;1.50;;;;;;;;;;5151519;27;20425;-72
2023/08/22 10:42:17;;;;;;;4.80;1.65;;;;;;;;;;5151591;27;20379;-72
2023/08/22 10:44:54;;;;;;;2.25;1.60;;;;;;;;;;5151265;27;20042;-73
2023/08/22 10:47:26;;;;;;;4.40;1.60;;;;;;;;;;5151663;27;20101;-72
2023/08/22 10:49:54;;;;;;;3.33;1.90;;;;;;;;;;5151252;27;20046;-73
2023/08/22 10:52:41;;;;;;;5.10;1.83;;;;;;;;;;5151086;27;20046;-72
2023/08/22 10:55:11;;;;;;;2.85;1.33;;;;;;;;;;5151634;27;20051;-73
2023/08/22 10:57:44;;;;;;;3.30;1.63;;;;;;;;;;5151215;27;20685;-72
2023/08/22 11:00:18;;;;;;;3.90;1.73;;;;;;;;;;5151243;27;20061;-73
2023/08/22 11:02:47;;;;;;;3.53;1.70;;;;;;;;;;5150247;27;20062;-72
2023/08/22 11:05:15;;;;;;;2.45;1.42;;;;;;;;;;5150863;27;20483;-72
2023/08/22 11:07:46;;;;;;;2.95;1.50;;;;;;;;;;5151193;27;20068;-73
2023/08/22 11:10:19;;;;;;;2.88;1.60;;;;;;;;;;5150702;27;20583;-73
2023/08/22 11:12:46;;;;;;;2.58;1.52;;;;;;;;;;5151613;27;20043;-73
2023/08/22 11:15:14;;;;;;;2.65;1.55;;;;;;;;;;5150964;27;20126;-73
2023/08/22 11:17:43;;;;;;;3.92;1.70;;;;;;;;;;5151574;27;20042;-72
2023/08/22 11:20:11;;;;;;;3.67;1.70;;;;;;;;;;5150723;27;20054;-73
2023/08/22 11:22:40;;;;;;;3.17;1.70;;;;;;;;;;5150257;27;20050;-73
2023/08/22 11:25:07;;;;;;;4.65;1.70;;;;;;;;;;5151020;27;20042;-73
2023/08/22 11:27:37;;;;;;;2.25;1.50;;;;;;;;;;5150806;27;20598;-73
2023/08/22 11:30:05;;;;;;;3.50;1.60;;;;;;;;;;5150589;27;20485;-73
2023/08/22 11:32:34;;;;;;;4.07;1.60;;;;;;;;;;5149456;27;20058;-73
2023/08/22 11:35:05;;;;;;;3.60;1.50;;;;;;;;;;5150545;27;20049;-73
2023/08/22 11:37:37;;;;;;;5.40;1.75;;;;;;;;;;5150317;27;20453;-73
2023/08/22 11:40:15;;;;;;;2.83;1.45;;;;;;;;;;5150418;27;20047;-74
2023/08/22 11:42:42;;;;;;;2.33;1.60;;;;;;;;;;5150526;27;20443;-73
2023/08/22 11:45:21;;;;;;;4.13;1.70;;;;;;;;;;5150505;27;20129;-73
2023/08/22 11:47:51;;;;;;;5.03;1.58;;;;;;;;;;5150960;27;20594;-73
2023/08/22 11:50:27;;;;;;;2.63;1.60;;;;;;;;;;5150181;27;20493;-74
2023/08/22 11:52:55;;;;;;;2.45;1.50;;;;;;;;;;5150270;27;20043;-74
2023/08/22 11:55:26;;;;;;;7.78;1.60;;;;;;;;;;5150700;27;20122;-73
2023/08/22 11:57:59;;;;;;;3.88;1.75;;;;;;;;;;5150396;27;20435;-72
2023/08/22 12:00:27;;;;;;;5.63;1.80;;;;;;;;;;5150068;27;20043;-73
2023/08/22 12:02:55;;;;;;;2.85;1.70;;;;;;;;;;5150704;27;20049;-73
2023/08/22 12:05:38;;;;;;;8.60;1.90;;;;;;;;;;5150158;27;20480;-73
2023/08/22 12:08:10;;;;;;;3.95;1.67;;;;;;;;;;5150420;27;20043;-73
2023/08/22 12:10:45;;;;;;;2.70;1.63;;;;;;;;;;5149725;27;20107;-72
2023/08/22 12:13:14;;;;;;;2.20;1.52;;;;;;;;;;5150424;27;20557;-73
2023/08/22 12:15:41;;;;;;;3.57;1.80;;;;;;;;;;5153776;27;20498;-72
2023/08/22 12:18:09;;;;;;;3.25;1.70;;;;;;;;;;5154361;27;20375;-72
2023/08/22 12:20:38;;;;;;;4.28;1.80;;;;;;;;;;5154508;27;20074;-72
2023/08/22 12:23:07;;;;;;;7.20;2.00;;;;;;;;;;5154050;27;20053;-72
2023/08/22 12:25:36;;;;;;;3.10;1.95;;;;;;;;;;5154622;27;20070;-72
2023/08/22 12:28:03;;;;;;;4.75;1.73;;;;;;;;;;5154653;27;20051;-72
2023/08/22 12:30:33;;;;;;;5.22;1.80;;;;;;;;;;5154123;27;20039;-72
2023/08/22 12:33:03;;;;;;;3.20;1.80;;;;;;;;;;5154147;27;20149;-72
2023/08/22 12:35:33;;;;;;;;;;;;;;;;;;5154654;27;20123;-72
2023/08/22 12:38:00;;;;;;;3.17;1.73;;;;;;;;;;5153792;27;19926;-72
2023/08/22 12:40:27;;;;;;;2.95;1.70;;;;;;;;;;5153773;27;20181;-72
2023/08/22 12:42:54;;;;;;;3.40;1.90;;;;;;;;;;5154202;27;20133;-72
2023/08/22 12:45:22;;;;;;;3.42;1.80;;;;;;;;;;5153848;27;20069;-72
2023/08/22 12:47:49;;;;;;;3.60;1.75;;;;;;;;;;5154068;27;20046;-72
2023/08/22 12:50:16;;;;;;;4.00;1.65;;;;;;;;;;5153586;27;20047;-72
2023/08/22 12:52:43;;;;;;;4.47;2.00;;;;;;;;;;5153314;27;20413;-72
2023/08/22 12:55:10;;;;;;;5.85;2.10;;;;;;;;;;5153896;27;20061;-72
2023/08/22 12:57:39;;;;;;;3.40;1.85;;;;;;;;;;5153807;27;20051;-73
2023/08/22 13:00:10;;;;;;;2.58;1.60;;;;;;;;;;5153484;27;20042;-72
2023/08/22 13:02:39;;;;;;;3.92;1.90;;;;;;;;;;5153740;27;20046;-73
2023/08/22 13:05:06;;;;;;;3.90;1.70;;;;;;;;;;5153648;27;20061;-72
2023/08/22 13:07:33;;;;;;;2.70;1.80;;;;;;;;;;5153411;27;20141;-73
2023/08/22 13:10:00;;;;;;;3.95;1.83;;;;;;;;;;5153162;27;20502;-72
2023/08/22 13:12:26;;;;;;;3.95;1.80;;;;;;;;;;5153724;27;20050;-72
2023/08/22 13:14:53;;;;;;;2.47;1.70;;;;;;;;;;5153259;27;20099;-72
2023/08/22 13:17:20;;;;;;;2.83;1.73;;;;;;;;;;5153676;27;20050;-72
2023/08/22 13:19:46;;;;;;;2.90;1.85;;;;;;;;;;5152967;27;20043;-72
2023/08/22 13:22:14;;;;;;;3.58;1.73;;;;;;;;;;5153004;27;20066;-73
2023/08/22 13:24:40;;;;;;;3.85;1.73;;;;;;;;;;5153022;27;20115;-73
2023/08/22 13:27:07;;;;;;;5.20;1.83;;;;;;;;;;5151937;27;20070;-72
2023/08/22 13:29:34;;;;;;;2.72;1.73;;;;;;;;;;5153191;27;20043;-72
2023/08/22 13:32:00;;;;;;;3.50;1.63;;;;;;;;;;5153003;27;20049;-72
2023/08/22 13:34:27;;;;;;;4.57;1.80;;;;;;;;;;5153140;27;20422;-73
2023/08/22 13:36:53;;;;;;;5.80;1.77;;;;;;;;;;5153190;27;20054;-72
2023/08/22 13:39:20;;;;;;;3.78;1.60;;;;;;;;;;5152802;27;20050;-73
2023/08/22 13:41:47;;;;;;;3.72;1.70;;;;;;;;;;5152937;27;20042;-73
2023/08/22 13:44:13;;;;;;;3.92;1.70;;;;;;;;;;5152786;27;20487;-72
2023/08/22 13:46:41;;;;;;;2.70;1.80;;;;;;;;;;5152665;27;20091;-72
2023/08/22 13:49:08;;;;;;;3.35;1.90;;;;;;;;;;5152810;27;20448;-73
2023/08/22 13:51:35;;;;;;;3.20;1.58;;;;;;;;;;5152092;27;20123;-72
2023/08/22 13:54:01;;;;;;;2.42;1.58;;;;;;;;;;5152565;27;20046;-73
2023/08/22 13:56:30;;;;;;;3.40;1.73;;;;;;;;;;5152582;27;20065;-73
2023/08/22 13:58:57;;;;;;;3.97;1.60;;;;;;;;;;5152373;27;20487;-72
2023/08/22 14:01:26;;;;;;;3.78;1.65;;;;;;;;;;5152276;27;20552;-72
2023/08/22 14:03:53;;;;;;;3.92;1.52;;;;;;;;;;5152710;27;20078;-73
2023/08/22 14:06:20;;;;;;;2.20;1.60;;;;;;;;;;5151006;27;20070;-73
2023/08/22 14:08:47;;;;;;;3.85;1.70;;;;;;;;;;5152239;27;20444;-73
2023/08/22 14:11:14;;;;;;;2.85;1.60;;;;;;;;;;5152250;27;20047;-72
2023/08/22 14:13:42;;;;;;;3.20;1.60;;;;;;;;;;5152702;27;20057;-72
2023/08/22 14:16:09;;;;;;;7.20;1.85;;;;;;;;;;5152053;27;20055;-73
2023/08/22 14:18:37;;;;;;;3.95;1.75;;;;;;;;;;5152243;27;20509;-72
2023/08/22 14:21:04;;;;;;;3.63;1.67;;;;;;;;;;5151682;27;20048;-73
2023/08/22 14:23:31;;;;;;;3.55;1.80;;;;;;;;;;5151829;27;20046;-73
2023/08/22 14:25:57;;;;;;;3.10;1.80;;;;;;;;;;5151825;27;20050;-73
2023/08/22 14:28:24;;;;;;;7.03;2.05;;;;;;;;;;5152202;27;20043;-73
2023/08/22 14:30:58;;;;;;;3.85;1.90;;;;;;;;;;5151768;27;20065;-73
2023/08/22 14:33:25;;;;;;;5.70;2.08;;;;;;;;;;5151887;27;20062;-73
2023/08/22 14:35:54;;;;;;;2.63;1.65;;;;;;;;;;5151912;27;20051;-73
2023/08/22 14:38:21;;;;;;;3.60;1.73;;;;;;;;;;5151071;27;20046;-72
2023/08/22 14:40:55;;;;;;;4.07;1.70;;;;;;;;;;5151406;27;20043;-72
2023/08/22 14:43:23;;;;;;;8.70;1.80;;;;;;;;;;5151735;27;20047;-72
2023/08/22 14:45:50;;;;;;;3.55;1.75;;;;;;;;;;5151301;27;20520;-73
2023/08/22 14:48:17;;;;;;;6.13;1.92;;;;;;;;;;5151583;27;20506;-72